Time;durP1;ratioP1;P1;durP2;ratioP2;P2;SDS_P1;SDS_P2;PMS_P1;PMS_P2;Temp;Humidity;BMP_temperature;BMP_pressure;BME280_temperature;BME280_humidity;BME280_pressure;Samples;Min_cycle;Max_cycle;Signal;HPM_P1;HPM_P2
2022/07/19 03:28:53;;;;;;;25.05;3.67;;;;;;;15.00;92.47;95682.69;6238258;22;1345874;-67
2022/07/19 03:31:20;;;;;;;4.00;2.70;;;;;;;15.01;92.45;95685.06;6260052;22;20038;-67
2022/07/19 03:33:47;;;;;;;3.88;3.05;;;;;;;14.99;93.20;95681.91;6261884;22;20022;-67
2022/07/19 03:37:33;;;;;;;13.95;6.15;;;;;;;15.06;93.11;95687.78;6170908;23;20031;-67
2022/07/19 03:40:00;;;;;;;6.03;2.75;;;;;;;15.06;93.53;95693.03;6259446;22;20026;-66
2022/07/19 03:42:27;;;;;;;3.80;3.00;;;;;;;15.04;93.69;95679.38;6258156;22;20039;-67
2022/07/19 03:45:29;;;;;;;4.80;3.38;;;;;;;15.12;94.43;95686.03;6262136;22;20359;-66
2022/07/19 03:47:56;;;;;;;5.78;3.08;;;;;;;15.13;94.54;95681.59;6261440;22;20474;-67
2022/07/19 03:50:23;;;;;;;3.40;2.95;;;;;;;15.21;94.44;95678.56;6260538;22;20023;-67
2022/07/19 03:52:50;;;;;;;4.63;2.53;;;;;;;15.26;94.16;95691.78;6235628;22;20039;-67
2022/07/19 03:55:20;;;;;;;4.55;3.10;;;;;;;15.34;93.89;95691.38;6262761;22;20023;-69
2022/07/19 03:57:47;;;;;;;4.93;2.95;;;;;;;15.41;94.51;95689.38;6254614;22;20024;-67
2022/07/19 04:00:14;;;;;;;4.70;2.80;;;;;;;15.55;93.91;95691.66;6259104;22;20089;-66
2022/07/19 04:02:53;;;;;;;12.63;3.35;;;;;;;15.65;93.36;95691.81;6261454;22;20634;-67
2022/07/19 04:05:22;;;;;;;5.78;2.80;;;;;;;15.75;92.83;95689.34;6261219;22;20040;-66
2022/07/19 04:07:49;;;;;;;5.50;2.55;;;;;;;15.83;92.92;95699.44;6255349;22;20058;-66
2022/07/19 04:10:16;;;;;;;10.50;3.58;;;;;;;15.96;92.40;95698.31;6259968;22;20019;-67
2022/07/19 04:12:43;;;;;;;8.10;3.90;;;;;;;16.10;92.13;95701.38;6232648;22;20015;-66
2022/07/19 04:15:10;;;;;;;5.85;3.30;;;;;;;16.21;91.37;95689.16;6259666;22;20027;-66
2022/07/19 04:18:09;;;;;;;4.55;2.45;;;;;;;16.37;90.90;95695.38;6261594;22;20023;-66
2022/07/19 04:20:45;;;;;;;7.75;3.22;;;;;;;16.46;90.40;95699.16;6235705;22;20019;-67
2022/07/19 04:23:15;;;;;;;5.85;3.22;;;;;;;16.62;90.06;95698.28;6261805;22;20024;-66
2022/07/19 04:25:48;;;;;;;6.38;2.78;;;;;;;16.76;89.71;95697.88;6263044;22;20025;-66
2022/07/19 04:28:15;;;;;;;7.28;2.95;;;;;;;16.89;89.18;95697.50;6261252;22;20019;-67
2022/07/19 04:30:48;;;;;;;6.15;2.83;;;;;;;17.02;88.47;95691.03;6240885;22;20027;-66
2022/07/19 04:33:16;;;;;;;4.28;2.80;;;;;;;17.15;88.55;95697.72;6231564;23;20055;-67
2022/07/19 04:35:51;;;;;;;4.57;2.35;;;;;;;17.28;87.82;95693.88;6204908;23;20024;-67
2022/07/19 04:38:18;;;;;;;4.95;2.65;;;;;;;17.41;87.51;95692.66;6230017;23;20024;-67
2022/07/19 04:40:51;;;;;;;7.93;2.85;;;;;;;17.50;86.97;95691.13;6206956;23;20028;-67
2022/07/19 04:43:25;;;;;;;3.88;3.15;;;;;;;17.56;86.95;95695.41;6229310;23;20424;-67
2022/07/19 04:45:52;;;;;;;4.47;2.92;;;;;;;17.67;86.59;95697.03;6203188;23;20634;-67
2022/07/19 04:48:19;;;;;;;4.28;3.03;;;;;;;17.76;85.92;95700.00;6231699;23;20040;-67
2022/07/19 04:51:01;;;;;;;3.70;2.45;;;;;;;17.83;84.74;95692.66;6231543;23;20029;-67
2022/07/19 04:53:28;;;;;;;6.72;2.50;;;;;;;17.94;85.45;95696.19;6231980;23;20020;-67
2022/07/19 04:56:01;;;;;;;3.50;2.85;;;;;;;18.07;84.69;95700.97;6230459;23;20016;-67
2022/07/19 04:58:28;;;;;;;5.90;2.85;;;;;;;18.19;85.02;95702.63;6228400;23;20158;-67
2022/07/19 05:00:55;;;;;;;5.10;2.67;;;;;;;18.28;84.63;95706.34;6231034;23;20016;-66
2022/07/19 05:03:22;;;;;;;5.28;2.75;;;;;;;18.41;83.74;95697.94;6232741;23;20024;-67
2022/07/19 05:06:15;;;;;;;5.22;2.78;;;;;;;18.54;83.06;95708.00;6231055;23;20020;-67
2022/07/19 05:08:41;;;;;;;4.78;3.65;;;;;;;18.61;82.75;95702.47;6228120;23;20020;-67
2022/07/19 05:11:08;;;;;;;18.50;3.10;;;;;;;18.72;81.38;95700.66;6232317;23;20024;-67
2022/07/19 05:13:35;;;;;;;4.75;2.70;;;;;;;18.83;80.96;95702.28;6233856;23;20024;-67
2022/07/19 05:16:02;;;;;;;11.88;2.95;;;;;;;18.90;80.28;95694.91;6228359;23;20051;-67
2022/07/19 05:18:29;;;;;;;4.75;2.72;;;;;;;19.01;79.88;95702.84;6202861;23;20846;-67
2022/07/19 05:20:56;;;;;;;7.35;2.80;;;;;;;19.15;77.94;95706.56;6206127;23;20694;-67
2022/07/19 05:23:23;;;;;;;6.93;2.70;;;;;;;19.21;78.40;95700.22;6229510;23;20026;-67
2022/07/19 05:25:57;;;;;;;7.72;3.10;;;;;;;19.39;77.70;95700.75;6232372;23;20057;-66
2022/07/19 05:28:24;;;;;;;;;;;;;;;19.44;77.48;95698.88;6233173;23;20020;-67
2022/07/19 05:30:51;;;;;;;9.13;2.75;;;;;;;19.49;76.88;95696.25;6232194;22;19923;-67
2022/07/19 05:33:17;;;;;;;6.43;2.42;;;;;;;19.68;74.64;95706.28;6205741;23;20024;-67
2022/07/19 05:35:44;;;;;;;6.45;3.20;;;;;;;19.78;73.16;95705.47;6230760;23;20604;-67
2022/07/19 05:38:13;;;;;;;5.30;3.08;;;;;;;19.87;73.60;95709.16;6229865;23;20077;-68
2022/07/19 05:40:40;;;;;;;6.05;2.58;;;;;;;20.01;72.63;95699.59;6230069;23;20027;-66
2022/07/19 05:43:06;;;;;;;6.10;3.13;;;;;;;20.10;72.38;95707.00;6229519;23;20386;-65
2022/07/19 05:45:33;;;;;;;2.75;2.35;;;;;;;20.22;71.23;95707.47;6230352;23;20020;-67
2022/07/19 05:48:00;;;;;;;3.63;2.80;;;;;;;20.35;70.66;95704.25;6227786;23;20024;-67
2022/07/19 05:50:27;;;;;;;10.18;2.95;;;;;;;20.50;69.89;95713.19;6224402;23;20024;-66
2022/07/19 05:52:54;;;;;;;3.05;2.53;;;;;;;20.65;68.85;95713.13;6228902;23;20020;-67
2022/07/19 05:55:21;;;;;;;9.63;2.35;;;;;;;20.75;67.68;95712.28;6223294;23;20008;-66
2022/07/19 05:58:21;;;;;;;5.07;2.58;;;;;;;20.99;65.91;95707.09;6232635;23;20027;-67
2022/07/19 06:03:40;;;;;;;2.90;1.98;;;;;;;21.16;64.16;95699.56;6231912;23;20043;-67
2022/07/19 06:06:08;;;;;;;3.95;1.95;;;;;;;21.30;62.03;95706.84;6231306;23;20020;-67
2022/07/19 06:08:43;;;;;;;8.25;2.40;;;;;;;21.39;62.49;95705.19;6230673;23;20017;-66
2022/07/19 06:11:12;;;;;;;4.80;1.88;;;;;;;21.53;60.35;95700.84;6230863;23;20024;-66
2022/07/19 06:13:49;;;;;;;10.77;2.17;;;;;;;21.71;60.89;95690.63;6234126;23;20024;-67
2022/07/19 06:16:16;;;;;;;4.15;2.20;;;;;;;21.86;59.37;95703.75;6233354;23;20020;-66
2022/07/19 06:18:43;;;;;;;2.20;1.77;;;;;;;21.99;58.17;95701.50;6231597;23;20024;-66
2022/07/19 06:21:14;;;;;;;2.38;1.77;;;;;;;22.11;58.06;95704.53;6228498;23;20040;-66
2022/07/19 06:23:42;;;;;;;3.38;1.92;;;;;;;22.20;57.28;95694.88;6231027;23;20035;-67
2022/07/19 06:26:11;;;;;;;4.00;2.20;;;;;;;22.28;54.80;95702.22;6200816;23;20085;-66
2022/07/19 06:29:10;;;;;;;7.53;2.45;;;;;;;22.42;55.83;95704.19;6201987;23;20662;-67
2022/07/19 06:31:37;;;;;;;4.47;2.38;;;;;;;22.57;54.87;95704.00;6227829;23;20016;-68
2022/07/19 06:34:05;;;;;;;7.47;2.65;;;;;;;22.69;55.14;95693.75;6231517;23;20042;-68
2022/07/19 06:36:38;;;;;;;1.67;1.58;;;;;;;22.73;53.26;95703.81;6228167;23;20047;-67
2022/07/19 06:39:05;;;;;;;6.65;2.08;;;;;;;22.92;53.55;95701.91;6229892;23;20047;-67
2022/07/19 06:41:32;;;;;;;6.95;2.33;;;;;;;22.97;51.92;95699.19;6232177;23;20016;-67
2022/07/19 06:43:59;;;;;;;6.65;2.10;;;;;;;23.05;52.04;95695.91;6234459;23;20081;-67
2022/07/19 06:46:26;;;;;;;7.20;1.70;;;;;;;23.12;50.20;95705.38;6230995;23;20027;-68
2022/07/19 06:48:53;;;;;;;5.85;1.98;;;;;;;23.22;49.72;95694.59;6227595;23;20566;-68
2022/07/19 06:51:20;;;;;;;5.88;1.60;;;;;;;23.36;49.22;95700.75;6230307;23;20028;-68
2022/07/19 06:53:48;;;;;;;3.88;1.58;;;;;;;23.47;49.00;95706.69;6201085;23;20020;-69
2022/07/19 06:56:15;;;;;;;2.50;1.45;;;;;;;23.56;45.32;95693.53;6229827;23;20027;-68
2022/07/19 06:58:42;;;;;;;2.45;1.83;;;;;;;23.73;45.24;95701.69;6228345;23;20016;-67
2022/07/19 07:01:09;;;;;;;4.18;1.45;;;;;;;23.79;43.64;95697.88;6230011;23;20024;-66
2022/07/19 07:03:37;;;;;;;2.00;1.40;;;;;;;23.84;43.66;95700.50;6230241;23;20054;-66
2022/07/19 07:06:05;;;;;;;2.58;1.83;;;;;;;23.98;44.33;95697.81;6229096;23;20020;-67
2022/07/19 07:08:38;;;;;;;2.58;1.70;;;;;;;24.13;45.16;95701.28;6227500;23;20030;-67
2022/07/19 07:11:05;;;;;;;2.28;1.95;;;;;;;24.16;43.40;95701.47;6208647;23;20020;-67
2022/07/19 07:13:34;;;;;;;3.92;1.80;;;;;;;24.21;44.18;95704.03;6229392;23;20122;-67
2022/07/19 07:16:02;;;;;;;7.13;1.95;;;;;;;24.26;41.96;95702.38;6203799;23;20843;-69
2022/07/19 07:18:29;;;;;;;2.00;1.63;;;;;;;24.42;42.79;95698.31;6228068;23;20044;-68
2022/07/19 07:20:56;;;;;;;1.48;1.20;;;;;;;24.53;41.89;95705.03;6227513;23;20016;-67
2022/07/19 07:23:24;;;;;;;6.88;2.15;;;;;;;24.71;40.06;95699.88;6200921;23;20023;-67
2022/07/19 07:25:53;;;;;;;2.08;1.58;;;;;;;24.84;41.33;95699.03;6226283;23;20031;-68
2022/07/19 07:28:20;;;;;;;15.15;4.32;;;;;;;24.88;39.28;95689.34;6226549;23;20043;-68
2022/07/19 07:30:52;;;;;;;3.70;1.70;;;;;;;25.00;39.14;95692.25;6227406;22;20039;-68
2022/07/19 07:33:31;;;;;;;5.57;3.28;;;;;;;25.20;37.38;95695.56;6230667;23;20015;-67
2022/07/19 07:35:58;;;;;;;9.80;7.75;;;;;;;25.23;38.85;95689.63;6201976;23;20099;-67
2022/07/19 07:38:26;;;;;;;2.80;1.92;;;;;;;25.43;37.65;95699.03;6231402;23;20024;-68
2022/07/19 07:40:53;;;;;;;7.38;4.55;;;;;;;25.52;37.95;95696.41;6228164;23;20395;-67
2022/07/19 07:43:40;;;;;;;3.35;1.80;;;;;;;25.61;38.48;95693.81;6230211;23;20028;-67
2022/07/19 07:46:08;;;;;;;3.08;1.65;;;;;;;25.65;36.68;95687.53;6227288;23;20016;-67
2022/07/19 07:48:35;;;;;;;9.50;1.73;;;;;;;25.85;35.38;95688.09;6230538;23;20020;-68
2022/07/19 07:51:02;;;;;;;2.55;1.60;;;;;;;25.93;35.49;95690.06;6227100;23;20051;-68
2022/07/19 07:53:49;;;;;;;4.85;1.65;;;;;;;25.90;34.42;95687.97;6209587;23;20475;-67
2022/07/19 07:56:16;;;;;;;2.28;1.70;;;;;;;25.96;35.20;95689.41;6228158;23;20016;-67
2022/07/19 07:58:43;;;;;;;1.98;1.52;;;;;;;26.08;33.85;95686.97;6229099;23;20407;-68
2022/07/19 08:01:10;;;;;;;2.85;1.65;;;;;;;26.26;33.44;95684.34;6227827;23;20075;-67
2022/07/19 08:03:37;;;;;;;2.17;1.50;;;;;;;26.15;35.14;95680.41;6225925;23;20051;-67
2022/07/19 08:06:06;;;;;;;1.80;1.50;;;;;;;26.30;36.04;95678.06;6229015;23;20070;-68
2022/07/19 08:08:32;;;;;;;3.72;1.83;;;;;;;26.46;36.19;95686.41;6201658;23;20142;-68
2022/07/19 08:10:59;;;;;;;10.73;1.70;;;;;;;26.65;35.92;95677.34;6231071;23;20027;-68
2022/07/19 08:13:26;;;;;;;6.13;1.67;;;;;;;26.63;33.79;95679.56;6227931;23;20027;-67
2022/07/19 08:15:53;;;;;;;6.03;1.88;;;;;;;26.62;33.35;95672.66;6230782;23;20042;-68
2022/07/19 08:18:33;;;;;;;3.50;1.70;;;;;;;26.56;33.34;95684.53;6230127;23;20032;-67
2022/07/19 08:21:04;;;;;;;5.88;1.95;;;;;;;26.60;33.92;95669.50;6229508;23;20031;-68
2022/07/19 08:23:31;;;;;;;5.20;1.77;;;;;;;26.70;35.07;95669.19;6226970;23;20035;-67
2022/07/19 08:25:59;;;;;;;3.05;1.48;;;;;;;26.81;34.34;95675.81;6229693;23;20047;-68
2022/07/19 08:28:26;;;;;;;2.47;1.80;;;;;;;26.85;33.40;95666.06;6232510;23;20467;-67
2022/07/19 08:30:52;;;;;;;4.85;2.22;;;;;;;27.10;34.04;95671.72;6232346;22;20024;-68
2022/07/19 08:33:46;;;;;;;2.78;1.70;;;;;;;27.20;34.48;95668.69;6227077;23;20078;-68
2022/07/19 08:36:12;;;;;;;4.75;1.52;;;;;;;27.33;33.04;95663.53;6225917;23;20016;-68
2022/07/19 08:38:40;;;;;;;3.03;1.40;;;;;;;27.39;32.48;95656.91;6229591;23;20767;-68
2022/07/19 08:41:21;;;;;;;2.75;1.80;;;;;;;27.52;34.06;95661.28;6207371;23;20572;-67
2022/07/19 08:43:50;;;;;;;5.15;1.55;;;;;;;27.68;33.92;95658.06;6230202;23;20020;-68
2022/07/19 08:46:21;;;;;;;2.08;1.55;;;;;;;27.97;33.40;95663.50;6230384;23;20051;-67
2022/07/19 08:48:55;;;;;;;4.10;1.50;;;;;;;28.20;33.78;95631.09;6231219;23;20027;-67
2022/07/19 08:51:23;;;;;;;4.78;1.70;;;;;;;28.72;31.70;95662.94;6229791;23;20024;-68
2022/07/19 08:53:50;;;;;;;4.93;2.05;;;;;;;28.97;30.93;95663.03;6230129;23;20020;-68
2022/07/19 08:59:05;;;;;;;2.88;1.50;;;;;;;29.28;30.67;95661.81;6230010;23;20016;-68
2022/07/19 09:01:33;;;;;;;3.00;1.38;;;;;;;29.30;30.13;95643.53;6229010;23;20030;-68
2022/07/19 09:04:19;;;;;;;1.42;1.25;;;;;;;29.35;29.67;95662.06;6230897;23;20442;-68
2022/07/19 09:06:55;;;;;;;5.53;1.60;;;;;;;29.21;30.08;95658.91;6227648;23;20039;-68
2022/07/19 09:09:30;;;;;;;5.03;1.40;;;;;;;28.84;30.15;95658.75;6204534;23;20027;-68
2022/07/19 09:12:00;;;;;;;3.65;2.65;;;;;;;28.84;31.06;95658.75;6228649;23;20654;-68
2022/07/19 09:14:53;;;;;;;5.70;1.90;;;;;;;28.82;30.57;95658.28;6232852;23;20458;-68
2022/07/19 09:17:29;;;;;;;3.30;2.17;;;;;;;28.79;30.67;95657.84;6230767;23;20554;-68
2022/07/19 09:19:56;;;;;;;2.90;2.08;;;;;;;28.77;30.41;95660.06;6231120;23;20467;-67
2022/07/19 09:22:25;;;;;;;1.70;1.25;;;;;;;28.65;30.68;95657.31;6228740;23;20352;-68
2022/07/19 09:24:53;;;;;;;2.38;1.85;;;;;;;28.68;30.49;95653.19;6231399;23;20255;-69
2022/07/19 09:27:25;;;;;;;2.92;1.80;;;;;;;28.88;31.14;95656.97;6203664;23;20023;-69
2022/07/19 09:29:54;;;;;;;2.20;1.73;;;;;;;29.26;30.54;95658.69;6230388;22;20031;-67
2022/07/19 09:32:23;;;;;;;9.15;2.08;;;;;;;29.30;29.71;95651.56;6231472;23;20035;-68
2022/07/19 09:34:55;;;;;;;2.60;1.90;;;;;;;29.41;30.46;95654.63;6228049;23;20024;-67
2022/07/19 09:37:25;;;;;;;3.13;1.60;;;;;;;29.59;29.87;95649.84;6229985;23;20355;-68
2022/07/19 09:39:54;;;;;;;1.67;1.40;;;;;;;29.42;29.05;95648.91;6231445;23;20028;-68
2022/07/19 09:42:23;;;;;;;4.32;1.55;;;;;;;29.30;29.29;95638.16;6203432;23;20082;-68
2022/07/19 09:44:58;;;;;;;3.28;1.85;;;;;;;29.67;29.36;95643.59;6232808;23;20024;-68
2022/07/19 09:47:34;;;;;;;6.93;5.53;;;;;;;30.25;29.78;95633.56;6233946;23;20024;-68
2022/07/19 09:50:04;;;;;;;2.65;1.90;;;;;;;30.37;28.11;95640.06;6227197;23;20027;-66
2022/07/19 09:52:34;;;;;;;4.40;1.70;;;;;;;30.35;27.93;95645.75;6230507;23;20020;-67
2022/07/19 09:55:12;;;;;;;2.15;1.70;;;;;;;30.15;28.96;95650.13;6229938;23;20091;-67
2022/07/19 09:57:44;;;;;;;3.33;1.92;;;;;;;29.89;28.09;95648.56;6235230;23;20704;-67
2022/07/19 10:00:17;;;;;;;3.38;2.08;;;;;;;29.55;29.50;95650.50;6237498;23;20024;-68
2022/07/19 10:02:50;;;;;;;3.15;1.55;;;;;;;29.48;30.00;95652.19;6237813;23;20023;-68
2022/07/19 10:05:20;;;;;;;2.70;1.85;;;;;;;29.13;28.65;95642.53;6235848;23;20050;-68
2022/07/19 10:07:48;;;;;;;3.03;2.33;;;;;;;29.19;29.12;95637.00;6209809;23;20078;-67
2022/07/19 10:10:17;;;;;;;2.95;1.90;;;;;;;29.35;30.13;95646.78;6234859;23;20846;-69
2022/07/19 10:12:46;;;;;;;3.33;1.85;;;;;;;29.78;28.32;95642.06;6236784;23;20024;-69
2022/07/19 10:15:16;;;;;;;3.53;2.17;;;;;;;29.85;28.24;95642.28;6235397;23;20099;-68
2022/07/19 10:17:55;;;;;;;2.80;1.60;;;;;;;29.80;29.93;95645.22;6235847;23;20451;-68
2022/07/19 10:20:25;;;;;;;2.20;1.90;;;;;;;29.91;28.29;95638.28;6235910;23;20099;-68
2022/07/19 10:22:53;;;;;;;5.32;2.00;;;;;;;29.96;27.21;95641.84;6236681;23;20059;-69
2022/07/19 10:25:20;;;;;;;4.78;2.40;;;;;;;30.28;28.54;95638.22;6233961;23;20020;-68
2022/07/19 10:27:54;;;;;;;3.95;1.73;;;;;;;30.66;26.83;95631.69;6229948;23;20024;-67
2022/07/19 10:30:41;;;;;;;3.42;1.70;;;;;;;31.16;27.78;95615.41;6229118;22;20054;-70
2022/07/19 10:33:29;;;;;;;3.03;1.80;;;;;;;31.79;26.18;95620.84;6233025;23;20024;-70
2022/07/19 10:35:57;;;;;;;4.50;1.98;;;;;;;32.29;25.39;95620.47;6228137;23;20426;-69
2022/07/19 10:38:24;;;;;;;8.00;1.83;;;;;;;32.43;22.49;95626.16;6228392;23;20110;-68
2022/07/19 10:40:58;;;;;;;6.32;1.77;;;;;;;32.25;23.77;95639.25;6230722;23;20020;-68
2022/07/19 10:43:27;;;;;;;4.40;1.58;;;;;;;32.16;23.40;95617.88;6226473;23;20027;-68
2022/07/19 10:45:57;;;;;;;5.68;1.85;;;;;;;32.62;23.22;95630.03;6227199;23;20016;-68
2022/07/19 10:54:08;;;;;;;7.13;2.10;;;;;;;31.88;23.83;95634.13;5087583;27;20133;-69
2022/07/19 10:56:39;;;;;;;1.88;1.30;;;;;;;31.64;23.71;95624.34;5069926;28;20043;-68
2022/07/19 10:59:34;;;;;;;4.03;1.58;;;;;;;31.78;23.69;95621.19;5072892;28;20056;-69
2022/07/19 11:02:02;;;;;;;4.07;1.70;;;;;;;31.98;22.69;95611.25;5091145;28;20036;-70
2022/07/19 11:04:50;;;;;;;3.45;1.42;;;;;;;32.23;24.24;95616.47;5053922;28;20182;-69
2022/07/19 11:07:20;;;;;;;12.90;1.80;;;;;;;32.12;24.68;95617.00;5074674;28;20040;-68
2022/07/19 11:09:58;;;;;;;4.20;1.30;;;;;;;31.50;24.90;95615.91;5057508;28;20039;-68
2022/07/19 11:12:29;;;;;;;3.47;1.73;;;;;;;30.59;25.11;95593.84;5056257;28;20028;-71
2022/07/19 11:14:58;;;;;;;3.10;1.60;;;;;;;30.69;25.64;95590.69;5090271;28;20059;-71
2022/07/19 11:17:58;;;;;;;6.43;1.63;;;;;;;30.72;25.53;95607.25;5073723;28;20056;-66
2022/07/19 11:20:28;;;;;;;6.22;1.30;;;;;;;30.70;24.39;95604.91;5073151;28;20046;-65
2022/07/19 11:22:56;;;;;;;3.20;1.45;;;;;;;30.29;25.50;95602.19;5075958;28;20044;-65
2022/07/19 11:25:43;;;;;;;4.07;1.38;;;;;;;30.63;26.18;95600.13;5077432;28;20056;-63
2022/07/19 11:28:22;;;;;;;2.75;1.20;;;;;;;30.56;25.42;95605.31;5077334;28;20173;-64
2022/07/19 11:30:50;;;;;;;2.70;1.50;;;;;;;29.98;25.79;95593.94;5054204;28;20043;-63
2022/07/19 11:33:19;;;;;;;3.08;1.58;;;;;;;29.57;26.53;95593.03;5072119;28;20135;-65
2022/07/19 11:36:00;;;;;;;3.42;2.10;;;;;;;29.85;26.98;95590.50;5074850;28;20043;-69
2022/07/19 11:38:41;;;;;;;8.85;1.48;;;;;;;30.74;25.78;95594.25;5072823;28;20691;-68
2022/07/19 11:41:18;;;;;;;4.63;2.00;;;;;;;31.53;23.94;95596.34;5074708;28;20042;-65
2022/07/19 11:44:01;;;;;;;3.08;1.80;;;;;;;31.89;23.75;95597.19;5085508;27;20545;-67
2022/07/19 11:46:42;;;;;;;3.58;1.70;;;;;;;32.09;24.15;95590.78;5057306;28;20691;-68
2022/07/19 11:49:13;;;;;;;5.07;1.30;;;;;;;32.32;22.94;95592.78;5071658;28;20048;-68
2022/07/19 11:51:40;;;;;;;2.05;1.52;;;;;;;32.57;23.86;95588.72;5073883;28;20044;-67
2022/07/19 11:54:07;;;;;;;3.17;1.52;;;;;;;33.00;21.80;95593.41;5073410;28;20063;-67
2022/07/19 11:56:35;;;;;;;5.88;1.48;;;;;;;33.47;22.37;95600.41;5074315;28;20056;-68
2022/07/19 11:59:06;;;;;;;3.35;1.92;;;;;;;33.00;22.13;95593.41;5073290;28;20067;-68
2022/07/19 12:01:38;;;;;;;1.70;1.45;;;;;;;32.09;22.64;95590.78;5073861;28;20036;-67
2022/07/19 12:04:09;;;;;;;3.53;1.90;;;;;;;31.44;24.30;95586.53;5066313;28;20048;-66
2022/07/19 12:06:39;;;;;;;6.13;1.67;;;;;;;31.70;24.02;95585.25;5062213;28;20127;-71
2022/07/19 12:09:08;;;;;;;7.22;1.60;;;;;;;31.98;23.88;95589.72;5058807;28;20114;-65
2022/07/19 12:11:38;;;;;;;3.53;1.58;;;;;;;32.16;23.27;95590.94;5058543;28;20055;-73
2022/07/19 12:14:19;;;;;;;5.75;1.38;;;;;;;32.88;22.90;95581.63;5060272;28;20040;-70
2022/07/19 12:16:47;;;;;;;2.92;1.60;;;;;;;33.64;22.49;95578.34;5061260;28;20127;-71
2022/07/19 12:19:17;;;;;;;3.05;1.10;;;;;;;34.21;21.67;95577.66;5058864;28;20079;-70
2022/07/19 12:21:44;;;;;;;1.73;1.15;;;;;;;34.84;21.41;95587.75;5059003;28;20040;-67
2022/07/19 12:24:27;;;;;;;6.22;2.03;;;;;;;35.47;20.41;95579.84;5074368;28;20647;-67
2022/07/19 12:27:07;;;;;;;2.63;1.42;;;;;;;34.40;20.44;95580.22;5047259;28;20527;-66
2022/07/19 12:29:42;;;;;;;2.72;1.45;;;;;;;34.77;21.02;95582.25;5060591;28;20049;-67
2022/07/19 12:32:15;;;;;;;1.92;1.20;;;;;;;35.56;19.70;95577.59;5062188;28;20314;-67
2022/07/19 12:35:01;;;;;;;3.55;1.20;;;;;;;35.49;19.49;95580.28;5063412;28;20048;-67
2022/07/19 12:37:44;;;;;;;8.52;1.33;;;;;;;35.05;18.95;95575.59;5058697;28;20039;-67
2022/07/19 12:40:18;;;;;;;4.28;1.17;;;;;;;35.46;20.19;95578.31;5048351;28;20048;-72
2022/07/19 12:42:46;;;;;;;3.95;1.40;;;;;;;35.70;18.91;95576.22;5051591;28;20724;-72
2022/07/19 12:45:15;;;;;;;3.03;1.10;;;;;;;35.96;19.35;95572.50;5074150;28;20055;-69
2022/07/19 12:47:43;;;;;;;1.77;1.00;;;;;;;36.15;18.04;95574.19;5065467;28;21391;-70
2022/07/19 12:50:18;;;;;;;2.45;1.10;;;;;;;36.47;19.12;95573.59;5067563;28;20123;-72
2022/07/19 12:52:45;;;;;;;1.40;1.00;;;;;;;36.83;18.81;95562.91;5061505;28;20053;-67
2022/07/19 12:55:14;;;;;;;1.85;1.02;;;;;;;37.25;17.74;95556.00;5062480;28;20047;-66
2022/07/19 12:57:47;;;;;;;3.03;1.27;;;;;;;37.21;17.62;95561.44;5064111;28;20028;-67
2022/07/19 13:00:17;;;;;;;4.07;1.10;;;;;;;37.20;17.69;95561.81;5061243;28;20509;-67
2022/07/19 13:02:46;;;;;;;1.63;0.93;;;;;;;37.35;17.02;95568.81;5061156;28;20071;-68
2022/07/19 13:05:13;;;;;;;1.55;1.13;;;;;;;36.90;17.82;95557.50;5062517;28;20509;-68
2022/07/19 13:07:42;;;;;;;2.15;1.25;;;;;;;37.18;16.77;95545.13;5061710;28;20075;-67
2022/07/19 13:10:10;;;;;;;2.15;1.10;;;;;;;37.58;17.88;95551.34;5062224;28;20050;-67
2022/07/19 13:12:39;;;;;;;1.52;1.10;;;;;;;38.24;17.89;95559.84;5060083;28;20036;-71
2022/07/19 13:15:08;;;;;;;3.58;1.30;;;;;;;38.15;16.48;95556.75;5055931;28;20487;-67
2022/07/19 13:17:35;;;;;;;2.13;1.20;;;;;;;38.55;16.95;95541.06;5065646;28;20055;-67
2022/07/19 13:20:05;;;;;;;3.92;1.60;;;;;;;38.89;15.72;95559.56;5057520;28;20044;-67
2022/07/19 13:22:32;;;;;;;1.73;1.10;;;;;;;39.04;15.72;95554.06;5064219;28;20048;-67
2022/07/19 13:24:59;;;;;;;12.88;1.30;;;;;;;39.53;16.40;95552.19;5058712;28;20041;-67
2022/07/19 13:27:48;;;;;;;3.22;1.00;;;;;;;39.85;15.68;95551.13;5066494;28;20045;-67
2022/07/19 13:30:15;;;;;;;1.38;1.00;;;;;;;39.80;15.14;95560.53;5059024;28;20061;-67
2022/07/19 13:32:41;;;;;;;1.48;0.73;;;;;;;39.26;15.78;95539.16;5061246;28;20106;-68
2022/07/19 13:35:09;;;;;;;4.07;1.08;;;;;;;38.84;16.07;95535.50;5057088;28;20043;-68
2022/07/19 13:37:36;;;;;;;2.08;1.20;;;;;;;39.30;15.53;95534.44;5062365;28;20044;-68
2022/07/19 13:40:04;;;;;;;2.58;1.30;;;;;;;39.46;15.06;95536.69;5039167;28;20048;-68
2022/07/19 13:42:31;;;;;;;1.17;1.05;;;;;;;39.19;15.70;95544.66;5060687;28;20056;-67
2022/07/19 13:44:58;;;;;;;4.30;0.80;;;;;;;39.64;15.51;95541.97;5057775;28;20045;-66
2022/07/19 13:47:25;;;;;;;1.15;0.85;;;;;;;39.54;15.81;95542.84;5059051;28;20048;-67
2022/07/19 13:49:53;;;;;;;1.70;1.25;;;;;;;39.60;14.58;95518.66;5060805;28;20048;-67
2022/07/19 13:52:20;;;;;;;2.45;0.90;;;;;;;39.18;15.06;95524.81;5059064;28;20056;-67
2022/07/19 13:54:47;;;;;;;35.45;3.65;;;;;;;38.16;16.04;95531.13;5056358;28;20704;-67
2022/07/19 13:57:14;;;;;;;2.65;1.10;;;;;;;37.91;16.18;95531.16;5053282;28;20082;-67
2022/07/19 13:59:41;;;;;;;2.92;1.10;;;;;;;38.52;16.62;95517.38;5060858;28;20040;-67
2022/07/19 14:02:09;;;;;;;1.48;1.08;;;;;;;38.85;15.67;95523.44;5058578;28;20532;-66
2022/07/19 14:04:36;;;;;;;3.33;0.88;;;;;;;39.18;16.22;95521.28;5063442;28;20139;-67
2022/07/19 14:07:03;;;;;;;2.05;1.15;;;;;;;39.26;14.96;95522.81;5057889;28;20445;-68
2022/07/19 14:09:30;;;;;;;1.92;1.02;;;;;;;39.44;14.93;95528.09;5060429;28;20053;-67
2022/07/19 14:11:57;;;;;;;4.30;1.33;;;;;;;39.89;15.04;95535.50;5056410;28;20044;-68
2022/07/19 14:14:24;;;;;;;1.48;0.90;;;;;;;39.89;14.97;95524.59;5059427;28;20095;-68
2022/07/19 14:16:51;;;;;;;1.30;0.98;;;;;;;39.97;15.58;95525.34;5060432;28;20044;-67
2022/07/19 14:19:18;;;;;;;6.88;1.10;;;;;;;40.04;14.43;95520.56;5041126;28;20076;-68
2022/07/19 14:21:45;;;;;;;1.60;0.88;;;;;;;40.16;14.40;95527.47;5063865;28;20036;-71
2022/07/19 14:24:12;;;;;;;8.60;1.48;;;;;;;40.16;14.52;95527.47;5054140;28;21157;-69
2022/07/19 14:26:39;;;;;;;2.75;0.90;;;;;;;39.90;14.40;95526.13;5036501;28;20066;-70
2022/07/19 14:29:05;;;;;;;2.35;1.08;;;;;;;39.10;15.32;95525.25;5060804;28;20114;-69
2022/07/19 14:31:32;;;;;;;1.23;0.85;;;;;;;38.11;15.53;95523.38;5059363;28;20804;-68
2022/07/19 14:34:07;;;;;;;1.55;0.93;;;;;;;37.49;15.79;95522.66;5055851;28;20048;-69
2022/07/19 14:36:54;;;;;;;2.17;0.93;;;;;;;38.03;15.50;95524.50;5062178;28;20220;-70
2022/07/19 14:39:21;;;;;;;4.13;1.00;;;;;;;38.10;16.74;95510.94;5039332;28;20033;-67
2022/07/19 14:41:47;;;;;;;1.75;0.90;;;;;;;38.57;15.79;95518.91;5062763;28;20118;-67
2022/07/19 14:44:14;;;;;;;8.70;0.90;;;;;;;39.11;16.12;95510.44;5052546;28;20044;-68
2022/07/19 14:46:41;;;;;;;2.90;1.15;;;;;;;39.39;15.25;95514.91;5062109;28;20044;-68
2022/07/19 14:49:08;;;;;;;1.02;0.90;;;;;;;39.75;14.36;95509.94;5059292;28;20759;-67
2022/07/19 14:51:35;;;;;;;1.10;0.80;;;;;;;39.42;15.18;95514.13;5039543;28;20044;-68
2022/07/19 14:54:03;;;;;;;1.75;1.00;;;;;;;39.42;15.18;95507.88;5057960;28;20045;-67
2022/07/19 14:56:38;;;;;;;2.22;1.25;;;;;;;38.78;15.22;95510.63;5056215;28;20581;-67
2022/07/19 14:59:05;;;;;;;1.83;1.10;;;;;;;38.83;15.43;95506.72;5055581;28;20055;-69
2022/07/19 15:01:32;;;;;;;1.27;0.93;;;;;;;38.97;15.41;95500.44;5056124;28;20044;-67
2022/07/19 15:03:59;;;;;;;5.60;1.10;;;;;;;39.61;14.29;95507.34;5038072;28;20040;-68
2022/07/19 15:06:26;;;;;;;2.90;0.90;;;;;;;39.52;14.90;95509.75;5055720;28;20108;-68
2022/07/19 15:08:53;;;;;;;2.08;0.82;;;;;;;39.87;14.50;95505.13;5060852;28;20055;-69
2022/07/19 15:11:20;;;;;;;1.55;0.73;;;;;;;40.10;14.52;95508.03;5056912;28;20403;-69
2022/07/19 15:13:47;;;;;;;2.40;1.00;;;;;;;40.44;14.67;95509.97;5059304;28;20037;-68
2022/07/19 15:16:14;;;;;;;3.45;0.73;;;;;;;40.62;13.91;95508.97;5057517;28;20040;-67
2022/07/19 15:18:44;;;;;;;1.95;0.98;;;;;;;40.18;14.22;95502.50;5064813;28;20052;-67
2022/07/19 15:21:12;;;;;;;1.33;0.85;;;;;;;39.80;14.62;95505.22;5050210;28;20163;-70
2022/07/19 15:23:41;;;;;;;2.63;0.90;;;;;;;39.74;15.29;95508.41;5056093;28;20066;-70
2022/07/19 15:26:08;;;;;;;2.63;0.93;;;;;;;39.29;14.85;95505.66;5054562;28;20048;-70
2022/07/19 15:28:36;;;;;;;1.60;1.02;;;;;;;38.83;15.36;95504.00;5057648;28;20072;-70
2022/07/19 15:31:04;;;;;;;1.27;0.90;;;;;;;38.53;15.40;95499.88;5057455;28;20723;-71